Time;durP1;ratioP1;P1;durP2;ratioP2;P2;SDS_P1;SDS_P2;PMS_P1;PMS_P2;Temp;Humidity;BMP_temperature;BMP_pressure;BME280_temperature;BME280_humidity;BME280_pressure;Samples;Min_cycle;Max_cycle;Signal;HPM_P1;HPM_P2
2022/07/14 00:02:48;;;;;;;0.65;0.40;;;;;;;21.86;69.53;98528.13;15280497;19;20006;-64
2022/07/14 00:07:53;;;;;;;1.45;0.30;;;;;;;21.86;70.02;98525.38;15280470;19;20044;-65
2022/07/14 00:12:58;;;;;;;1.85;0.32;;;;;;;21.69;72.17;98525.19;15281206;19;20804;-65
2022/07/14 00:18:06;;;;;;;0.88;0.30;;;;;;;21.62;73.59;98518.13;15280130;19;20373;-65
2022/07/14 00:23:11;;;;;;;1.38;0.40;;;;;;;21.48;75.02;98518.25;15277503;19;20014;-64
2022/07/14 00:28:16;;;;;;;0.60;0.40;;;;;;;21.32;79.20;98516.16;15271654;19;20050;-65
2022/07/14 00:33:24;;;;;;;1.17;0.40;;;;;;;21.18;81.33;98516.31;15279789;19;20014;-65
2022/07/14 00:38:29;;;;;;;1.63;0.40;;;;;;;21.08;85.87;98514.09;15281976;19;20014;-65
2022/07/14 00:43:35;;;;;;;1.17;0.47;;;;;;;21.00;92.04;98524.50;15274914;19;20010;-66
2022/07/14 00:48:43;;;;;;;1.85;0.50;;;;;;;20.90;100.00;98514.91;15279384;19;20462;-66
2022/07/14 00:53:55;;;;;;;0.75;0.50;;;;;;;20.72;100.00;98520.34;15275595;19;20014;-66
2022/07/14 00:59:00;;;;;;;1.13;0.40;;;;;;;20.69;100.00;98515.28;15274709;19;20021;-66
2022/07/14 01:04:08;;;;;;;1.42;0.60;;;;;;;20.60;100.00;98515.59;15279614;19;20022;-64
2022/07/14 01:09:13;;;;;;;0.68;0.50;;;;;;;20.59;100.00;98521.28;15279953;19;20025;-64
2022/07/14 01:14:18;;;;;;;0.85;0.60;;;;;;;20.56;100.00;98522.56;15276153;19;20038;-64
2022/07/14 01:25:19;;;;;;;1.02;0.50;;;;;;;20.42;100.00;98540.16;15276441;19;20405;-66
2022/07/14 01:30:25;;;;;;;0.50;0.50;;;;;;;20.37;100.00;98542.72;15262584;19;20014;-66
2022/07/14 01:35:30;;;;;;;1.30;0.60;;;;;;;20.23;100.00;98534.63;15272336;19;20042;-63
2022/07/14 01:40:38;;;;;;;2.13;0.55;;;;;;;20.13;100.00;98537.00;15284840;19;20453;-65
2022/07/14 01:45:43;;;;;;;2.30;0.50;;;;;;;20.05;100.00;98531.81;15290298;19;20468;-63
2022/07/14 01:50:49;;;;;;;1.75;0.70;;;;;;;20.01;100.00;98537.72;15288697;19;20018;-64
2022/07/14 01:55:59;;;;;;;3.30;0.50;;;;;;;19.96;100.00;98532.06;15283775;19;20070;-64
2022/07/14 02:06:26;;;;;;;0.95;0.70;;;;;;;19.62;100.00;98536.81;15286880;19;20006;-63
2022/07/14 02:16:53;;;;;;;1.77;0.80;;;;;;;19.34;100.00;98537.16;15288570;19;20010;-65
2022/07/14 02:21:59;;;;;;;1.77;0.68;;;;;;;19.33;100.00;98533.59;15286089;19;20046;-65
2022/07/14 02:27:07;;;;;;;1.02;0.60;;;;;;;19.34;100.00;98540.75;15288973;19;20611;-64
2022/07/14 02:32:12;;;;;;;0.88;0.70;;;;;;;19.27;100.00;98542.63;15281421;19;20019;-64
2022/07/14 02:37:18;;;;;;;0.68;0.60;;;;;;;19.27;100.00;98544.56;15282628;19;20022;-64
2022/07/14 02:42:34;;;;;;;0.75;0.63;;;;;;;19.24;100.00;98533.00;15284721;19;20574;-64
2022/07/14 02:47:39;;;;;;;1.33;0.70;;;;;;;19.22;100.00;98546.03;15286612;19;20014;-64
2022/07/14 02:52:45;;;;;;;2.17;0.90;;;;;;;19.18;100.00;98557.59;15280578;19;20094;-64
2022/07/14 02:57:53;;;;;;;1.13;0.90;;;;;;;19.11;100.00;98554.03;15281711;19;20823;-64
2022/07/14 03:03:00;;;;;;;1.52;1.00;;;;;;;19.03;100.00;98542.28;15274189;19;20011;-63
2022/07/14 03:08:07;;;;;;;5.35;1.10;;;;;;;19.01;100.00;98549.00;15273668;19;20815;-63
2022/07/14 03:13:15;;;;;;;2.28;1.27;;;;;;;18.98;100.00;98539.38;15284184;19;20018;-63
2022/07/14 03:18:24;;;;;;;1.23;1.08;;;;;;;18.92;100.00;98538.31;15281076;19;20043;-63
2022/07/14 03:23:32;;;;;;;3.72;1.00;;;;;;;18.86;100.00;98546.50;15284680;19;20018;-64
2022/07/14 03:28:41;;;;;;;1.83;1.15;;;;;;;18.80;100.00;98550.91;15279355;19;20460;-63
2022/07/14 03:33:46;;;;;;;1.90;0.98;;;;;;;18.75;100.00;98559.75;15282657;19;20021;-64
2022/07/14 03:38:53;;;;;;;3.58;1.00;;;;;;;18.75;100.00;98561.59;15270583;19;20042;-64
2022/07/14 03:44:01;;;;;;;2.53;0.90;;;;;;;18.70;100.00;98564.97;15284373;19;20010;-64
2022/07/14 03:49:07;;;;;;;1.77;0.98;;;;;;;18.71;100.00;98571.25;15286862;19;20029;-63
2022/07/14 03:54:13;;;;;;;3.78;1.00;;;;;;;18.70;100.00;98578.63;15287390;19;20026;-64
2022/07/14 03:59:21;;;;;;;1.40;0.90;;;;;;;18.70;100.00;98581.34;15283979;19;20050;-64
2022/07/14 04:04:28;;;;;;;1.83;0.90;;;;;;;18.74;100.00;98585.34;14971469;19;5014331;-63
2022/07/14 04:09:34;;;;;;;3.50;0.90;;;;;;;18.73;100.00;98582.81;15272149;19;20329;-63
2022/07/14 04:14:43;;;;;;;1.17;0.90;;;;;;;18.75;100.00;98589.75;15275913;19;20036;-63
2022/07/14 04:19:49;;;;;;;0.98;0.80;;;;;;;18.82;100.00;98586.19;15278202;19;20014;-65
2022/07/14 04:24:54;;;;;;;1.30;0.93;;;;;;;18.84;100.00;98598.56;15279068;19;20002;-64
2022/07/14 04:30:03;;;;;;;3.97;1.00;;;;;;;18.88;100.00;98601.69;15278876;19;20027;-59
2022/07/14 04:35:10;;;;;;;2.28;1.00;;;;;;;18.90;100.00;98592.25;15273944;19;20383;-61
2022/07/14 04:40:16;;;;;;;1.30;1.00;;;;;;;18.94;100.00;98598.16;15272790;19;20086;-61
2022/07/14 04:45:25;;;;;;;3.97;1.13;;;;;;;18.92;100.00;98594.78;15270049;19;20085;-63
2022/07/14 04:55:49;;;;;;;1.63;0.90;;;;;;;18.83;100.00;98605.06;15271116;19;20378;-60
2022/07/14 05:01:05;;;;;;;1.95;0.82;;;;;;;18.86;100.00;98618.28;15273467;19;20011;-62
2022/07/14 05:06:18;;;;;;;1.92;1.05;;;;;;;18.86;100.00;98621.03;15273701;19;20018;-62
2022/07/14 05:11:51;;;;;;;3.08;1.00;;;;;;;18.96;100.00;98623.38;15272546;19;20009;-60
2022/07/14 05:17:00;;;;;;;3.38;1.02;;;;;;;18.89;100.00;98623.34;15274621;19;20010;-59
2022/07/14 05:22:24;;;;;;;3.38;1.17;;;;;;;18.86;100.00;98614.75;15285230;19;20014;-61
2022/07/14 05:27:30;;;;;;;3.45;1.13;;;;;;;18.77;100.00;98616.81;15286224;19;20777;-61
2022/07/14 05:32:39;;;;;;;3.45;1.33;;;;;;;18.55;100.00;98618.91;15286295;19;20781;-65
2022/07/14 05:37:44;;;;;;;2.63;1.00;;;;;;;18.69;100.00;98625.22;15290447;19;20319;-62
2022/07/14 05:42:50;;;;;;;1.88;1.00;;;;;;;18.78;100.00;98622.06;15283409;19;20011;-64
2022/07/14 05:47:58;;;;;;;2.17;1.15;;;;;;;18.76;100.00;98612.41;15274774;19;20011;-62
2022/07/14 05:53:03;;;;;;;2.00;1.20;;;;;;;18.62;100.00;98619.78;15282303;19;20483;-61
2022/07/14 05:58:08;;;;;;;2.30;1.30;;;;;;;18.62;100.00;98622.50;15287152;19;20087;-60
2022/07/14 06:03:31;;;;;;;2.70;1.17;;;;;;;18.61;100.00;98613.47;15290002;19;20027;-60
2022/07/14 06:08:49;;;;;;;1.88;1.20;;;;;;;18.63;100.00;98613.25;15274081;19;20585;-62
2022/07/14 06:13:54;;;;;;;1.67;1.10;;;;;;;18.63;100.00;98621.44;15289659;19;20046;-60
2022/07/14 06:19:03;;;;;;;2.90;1.20;;;;;;;18.62;100.00;98611.59;15277535;19;20086;-60
2022/07/14 06:24:12;;;;;;;2.83;1.00;;;;;;;18.66;100.00;98607.38;15285225;19;20006;-61
2022/07/14 06:29:18;;;;;;;2.17;1.30;;;;;;;18.78;100.00;98624.81;15286612;19;20066;-61
2022/07/14 06:34:26;;;;;;;3.00;1.23;;;;;;;18.83;100.00;98634.25;15288912;19;20014;-59
2022/07/14 06:39:51;;;;;;;1.95;1.17;;;;;;;18.86;100.00;98631.13;15287783;19;20023;-61
2022/07/14 06:44:57;;;;;;;3.63;1.20;;;;;;;18.98;100.00;98626.72;15287151;19;20019;-61
2022/07/14 06:50:09;;;;;;;5.05;1.30;;;;;;;19.01;100.00;98609.91;15281106;19;20036;-65
2022/07/14 06:55:14;;;;;;;3.78;1.30;;;;;;;19.01;100.00;98614.53;15282478;19;20011;-63
2022/07/14 07:00:19;;;;;;;1.88;1.10;;;;;;;19.12;100.00;98602.13;15283839;19;20019;-61
2022/07/14 07:11:05;;;;;;;1.52;1.15;;;;;;;19.30;100.00;98601.47;15284442;19;20026;-61
2022/07/14 07:16:11;;;;;;;2.72;1.20;;;;;;;19.38;100.00;98603.97;15284396;19;20007;-60
2022/07/14 07:21:20;;;;;;;5.45;1.20;;;;;;;19.43;100.00;98595.13;15284014;19;20900;-62
2022/07/14 07:26:27;;;;;;;4.50;1.40;;;;;;;19.51;100.00;98578.50;15280706;19;20115;-61
2022/07/14 07:31:32;;;;;;;2.92;1.10;;;;;;;19.63;100.00;98575.94;15283798;19;20010;-61
2022/07/14 07:36:40;;;;;;;4.88;1.30;;;;;;;19.73;100.00;98557.19;15281148;19;20042;-63
2022/07/14 07:42:06;;;;;;;2.20;1.13;;;;;;;19.90;100.00;98535.69;15282355;19;20503;-64
2022/07/14 07:47:10;;;;;;;2.15;1.30;;;;;;;20.01;100.00;98554.13;15282992;19;20022;-62
2022/07/14 07:52:18;;;;;;;3.47;1.23;;;;;;;20.13;100.00;98507.75;15282079;19;20038;-64
2022/07/14 07:57:24;;;;;;;3.65;1.30;;;;;;;20.23;100.00;98523.69;15269869;19;20006;-62
2022/07/14 08:02:29;;;;;;;3.45;1.30;;;;;;;20.39;100.00;98548.81;15282245;19;20018;-62
2022/07/14 08:07:38;;;;;;;2.90;1.13;;;;;;;20.56;100.00;98522.56;15280134;19;20018;-62
2022/07/14 08:12:43;;;;;;;2.80;1.13;;;;;;;20.75;100.00;98517.19;15280961;19;20014;-59
2022/07/14 08:17:48;;;;;;;2.08;1.20;;;;;;;20.81;100.00;98513.53;15279741;19;20015;-60
2022/07/14 08:22:56;;;;;;;2.78;1.10;;;;;;;21.00;100.00;98516.28;15280829;19;20355;-61
2022/07/14 08:28:01;;;;;;;2.90;1.10;;;;;;;21.17;100.00;98522.84;15270808;19;20014;-63
2022/07/14 08:33:06;;;;;;;2.38;1.00;;;;;;;21.28;100.00;98512.19;15281478;19;20594;-64
2022/07/14 08:38:13;;;;;;;2.38;1.33;;;;;;;21.44;100.00;98517.06;15276787;19;20046;-64
2022/07/14 08:43:19;;;;;;;2.15;1.23;;;;;;;21.65;100.00;98509.44;15280144;19;20033;-62
2022/07/14 08:48:25;;;;;;;2.15;1.20;;;;;;;21.90;100.00;98512.03;15276414;19;20049;-62
2022/07/14 08:53:33;;;;;;;2.30;1.20;;;;;;;22.07;100.00;98509.47;15280592;19;20007;-62
2022/07/14 08:58:39;;;;;;;1.67;1.00;;;;;;;22.20;100.00;98500.22;15270303;19;20681;-60
2022/07/14 09:03:44;;;;;;;1.58;1.00;;;;;;;22.28;100.00;98512.75;15273966;19;20497;-62
2022/07/14 09:09:12;;;;;;;3.42;1.23;;;;;;;22.20;100.00;98491.13;15277829;19;20013;-63
2022/07/14 09:14:17;;;;;;;1.98;1.27;;;;;;;22.25;100.00;98494.00;15278782;19;20346;-61
2022/07/14 09:19:23;;;;;;;5.10;1.30;;;;;;;22.49;100.00;98516.84;15277730;19;20414;-61
2022/07/14 09:24:31;;;;;;;3.85;1.20;;;;;;;22.56;100.00;98506.63;15278466;19;20014;-61
2022/07/14 09:29:36;;;;;;;3.70;1.10;;;;;;;22.71;100.00;98500.66;15277746;19;20019;-62
2022/07/14 09:34:41;;;;;;;4.75;1.13;;;;;;;22.87;100.00;98484.53;15267545;19;20522;-61
2022/07/14 09:39:56;;;;;;;1.15;1.05;;;;;;;23.07;100.00;98481.38;15269981;19;20467;-64
2022/07/14 09:45:11;;;;;;;2.38;1.27;;;;;;;23.13;100.00;98476.81;15274664;19;20082;-60
2022/07/14 09:50:34;;;;;;;2.83;1.30;;;;;;;22.90;100.00;98467.53;15274216;19;20022;-62
2022/07/14 09:55:46;;;;;;;3.33;1.30;;;;;;;23.25;100.00;98458.44;15271636;19;20010;-62
2022/07/14 10:01:03;;;;;;;5.20;1.20;;;;;;;23.61;100.00;98442.63;15281556;19;20018;-62
2022/07/14 10:06:08;;;;;;;1.67;1.00;;;;;;;23.84;100.00;98449.94;15275887;19;20085;-66
2022/07/14 10:11:37;;;;;;;3.38;1.05;;;;;;;24.09;100.00;98434.16;15286480;19;20428;-61
2022/07/14 10:16:44;;;;;;;1.88;1.20;;;;;;;24.24;100.00;98420.66;15283995;19;20018;-60
2022/07/14 10:21:50;;;;;;;4.40;1.30;;;;;;;24.15;100.00;98431.22;15285889;19;20018;-62
2022/07/14 10:27:00;;;;;;;3.45;1.10;;;;;;;24.15;100.00;98414.72;15286053;19;20380;-60
2022/07/14 10:32:18;;;;;;;1.67;1.10;;;;;;;23.96;100.00;98405.88;15281613;19;20042;-62
2022/07/14 10:37:32;;;;;;;2.80;1.20;;;;;;;23.88;100.00;98417.28;15271737;19;20018;-61
2022/07/14 10:42:53;;;;;;;1.75;0.98;;;;;;;24.00;100.00;98407.06;15281193;19;20038;-61
2022/07/14 10:47:58;;;;;;;2.05;1.00;;;;;;;24.10;100.00;98400.03;15283971;19;20020;-60
2022/07/14 10:53:06;;;;;;;2.78;1.20;;;;;;;23.93;100.00;98402.75;15281334;19;20018;-57
2022/07/14 10:58:32;;;;;;;1.15;0.90;;;;;;;23.57;100.00;98408.47;15275894;19;20497;-62
2022/07/14 11:03:54;;;;;;;4.38;1.40;;;;;;;23.78;100.00;98392.34;15286140;19;20011;-60
2022/07/14 11:09:44;;;;;;;4.22;1.30;;;;;;;23.89;100.00;98388.69;15270907;19;20014;-60
2022/07/14 11:14:52;;;;;;;2.42;1.10;;;;;;;24.19;100.00;98375.69;15283777;19;20011;-59
2022/07/14 11:19:57;;;;;;;2.47;1.20;;;;;;;24.26;100.00;98368.94;15281382;19;20015;-60
2022/07/14 11:25:04;;;;;;;2.75;1.20;;;;;;;24.57;100.00;98363.84;15285210;19;20021;-61
2022/07/14 11:30:29;;;;;;;3.40;1.10;;;;;;;24.95;100.00;98349.47;15283942;19;20534;-59
2022/07/14 11:41:08;;;;;;;2.88;1.27;;;;;;;24.67;100.00;98359.56;15268420;19;20468;-62
2022/07/14 11:46:18;;;;;;;3.17;1.00;;;;;;;24.51;100.00;98359.38;15277635;19;20420;-63
2022/07/14 11:51:25;;;;;;;1.77;1.10;;;;;;;24.57;100.00;98352.84;15279621;19;20019;-62
2022/07/14 11:56:35;;;;;;;2.30;1.10;;;;;;;24.38;100.00;98344.03;15277270;19;20014;-58
2022/07/14 12:01:43;;;;;;;5.85;1.08;;;;;;;24.50;100.00;98349.44;15279397;19;20014;-60
2022/07/14 12:06:50;;;;;;;2.58;1.00;;;;;;;24.54;100.00;98345.06;15279380;19;20479;-63
2022/07/14 12:11:56;;;;;;;3.92;1.10;;;;;;;24.34;100.00;98328.28;15272761;19;20033;-59
2022/07/14 12:17:04;;;;;;;3.25;1.30;;;;;;;24.31;100.00;98338.72;15271322;19;20074;-60
2022/07/14 12:22:10;;;;;;;2.35;1.02;;;;;;;24.20;100.00;98325.88;15276397;19;20022;-61
2022/07/14 12:27:15;;;;;;;6.15;1.10;;;;;;;24.10;100.00;98318.31;15278154;19;20094;-62
2022/07/14 12:32:27;;;;;;;4.03;1.30;;;;;;;23.91;100.00;98320.47;15274290;19;20037;-59
2022/07/14 12:37:32;;;;;;;2.45;1.10;;;;;;;24.03;100.00;98311.34;15273190;19;20034;-59
2022/07/14 12:42:58;;;;;;;5.07;1.20;;;;;;;24.41;100.00;98310.50;15272455;19;20118;-61
2022/07/14 12:48:15;;;;;;;3.51;1.30;;;;;;;24.53;100.00;98301.28;15234890;19;10003212;-59
2022/07/14 12:53:20;;;;;;;3.20;1.33;;;;;;;24.45;100.00;98308.06;15274445;19;20274;-59
2022/07/14 12:58:29;;;;;;;4.85;1.30;;;;;;;24.28;100.00;98313.63;15270202;19;20019;-60
2022/07/14 13:03:37;;;;;;;3.55;1.33;;;;;;;24.15;100.00;98323.06;15276873;19;20015;-57
2022/07/14 13:08:44;;;;;;;3.23;1.57;;;;;;;23.87;100.00;98324.00;15272903;19;20034;-59
2022/07/14 13:13:53;;;;;;;6.32;1.45;;;;;;;23.87;100.00;98313.81;15274135;19;20079;-60
2022/07/14 13:19:17;;;;;;;8.88;1.42;;;;;;;23.54;100.00;98301.72;15255742;19;20410;-59
2022/07/14 13:24:30;;;;;;;6.00;1.50;;;;;;;23.47;100.00;98295.53;15275444;19;20014;-61
2022/07/14 13:29:39;;;;;;;6.47;1.70;;;;;;;23.47;100.00;98310.13;15272725;19;20014;-61
2022/07/14 13:34:49;;;;;;;3.75;1.33;;;;;;;23.23;100.00;98326.75;15279662;19;20006;-64
2022/07/14 13:39:55;;;;;;;5.00;1.33;;;;;;;23.22;100.00;98307.78;15282167;19;20091;-63
2022/07/14 13:45:03;;;;;;;3.90;1.40;;;;;;;23.34;100.00;98302.19;15287027;19;20345;-57
2022/07/14 13:55:32;;;;;;;2.65;1.10;;;;;;;23.38;100.00;98287.72;15285263;19;20030;-59
2022/07/14 14:00:38;;;;;;;3.70;1.25;;;;;;;23.17;100.00;98296.66;15287097;19;20018;-60
2022/07/14 14:05:46;;;;;;;3.17;1.55;;;;;;;23.17;100.00;98318.63;15287427;19;20373;-60
2022/07/14 14:10:51;;;;;;;3.25;1.27;;;;;;;23.29;100.00;98311.19;15282841;19;20307;-59
2022/07/14 14:15:57;;;;;;;3.75;1.20;;;;;;;23.23;100.00;98302.00;15287165;19;20384;-63
2022/07/14 14:21:07;;;;;;;5.32;1.40;;;;;;;23.19;100.00;98283.50;15279793;19;20017;-61
2022/07/14 14:26:12;;;;;;;3.38;1.20;;;;;;;23.27;100.00;98263.88;15285663;19;20014;-58
2022/07/14 14:31:18;;;;;;;2.55;1.10;;;;;;;23.00;100.00;98283.69;15283226;19;20050;-59
2022/07/14 14:36:26;;;;;;;4.05;1.20;;;;;;;22.89;100.00;98279.06;15285209;19;20006;-53
2022/07/14 14:41:31;;;;;;;3.47;1.30;;;;;;;23.04;100.00;98293.13;15283525;19;20010;-53
2022/07/14 14:46:36;;;;;;;2.05;1.00;;;;;;;23.10;100.00;98291.28;15284277;19;20027;-54
2022/07/14 14:51:44;;;;;;;4.20;1.15;;;;;;;23.29;100.00;98286.44;15281126;19;20030;-55
2022/07/14 14:56:49;;;;;;;5.03;1.20;;;;;;;23.38;100.00;98279.47;15275364;19;20018;-58
2022/07/14 15:01:54;;;;;;;2.65;1.08;;;;;;;23.58;100.00;98280.88;15285653;19;20019;-60
2022/07/14 15:07:02;;;;;;;2.65;1.20;;;;;;;23.68;100.00;98285.72;15287028;19;20018;-61
2022/07/14 15:12:09;;;;;;;5.63;1.00;;;;;;;24.00;100.00;98274.97;15283520;19;20017;-60
2022/07/14 15:17:14;;;;;;;3.55;1.17;;;;;;;24.45;100.00;98269.50;15284330;19;20026;-63
2022/07/14 15:22:22;;;;;;;2.58;0.90;;;;;;;24.42;100.00;98256.25;15283802;19;20014;-61
2022/07/14 15:27:27;;;;;;;1.38;0.80;;;;;;;24.50;100.00;98252.22;15275261;19;20006;-60
2022/07/14 15:32:32;;;;;;;2.00;0.95;;;;;;;24.92;100.00;98238.69;15282108;19;20014;-61
2022/07/14 15:37:40;;;;;;;2.05;0.90;;;;;;;24.68;100.00;98231.78;15283578;19;20038;-63
2022/07/14 15:42:45;;;;;;;2.10;0.90;;;;;;;24.33;100.00;98222.00;15281683;19;20364;-59
2022/07/14 15:47:50;;;;;;;3.30;1.00;;;;;;;24.54;100.00;98212.88;15283400;19;20014;-62
2022/07/14 15:52:58;;;;;;;3.95;0.98;;;;;;;24.84;100.00;98224.53;15284946;19;20039;-62
2022/07/14 15:58:03;;;;;;;4.95;1.10;;;;;;;24.66;100.00;98217.41;15115222;19;1006103;-61
2022/07/14 16:03:08;;;;;;;5.07;1.08;;;;;;;24.50;100.00;98225.53;15285760;19;20602;-61
2022/07/14 16:08:17;;;;;;;2.70;1.10;;;;;;;24.52;100.00;98223.31;15281047;19;20014;-62
2022/07/14 16:13:22;;;;;;;4.72;0.90;;;;;;;25.12;100.00;98215.16;15285968;19;20009;-62
2022/07/14 16:18:28;;;;;;;5.53;0.90;;;;;;;25.62;97.56;98213.13;15279593;19;20031;-62
2022/07/14 16:23:37;;;;;;;3.50;1.20;;;;;;;25.35;98.75;98218.66;15282569;19;20054;-60
2022/07/14 16:28:43;;;;;;;2.97;1.20;;;;;;;24.75;100.00;98213.97;15278329;19;20244;-61
2022/07/14 16:33:48;;;;;;;2.20;1.05;;;;;;;25.08;92.34;98208.53;15270384;19;20014;-61
2022/07/14 16:38:56;;;;;;;2.20;1.20;;;;;;;25.43;79.99;98203.59;15279876;19;20538;-62
2022/07/14 16:44:01;;;;;;;4.15;1.33;;;;;;;25.33;78.95;98204.31;15294531;19;20007;-61
2022/07/14 16:49:07;;;;;;;3.45;1.08;;;;;;;24.66;80.75;98201.75;15283927;19;20019;-60
2022/07/14 16:54:14;;;;;;;5.15;1.27;;;;;;;24.27;82.72;98201.84;15281026;19;20015;-61
2022/07/14 16:59:20;;;;;;;3.65;1.10;;;;;;;23.94;76.58;98207.16;15276377;19;20011;-63
2022/07/14 17:04:25;;;;;;;3.33;1.08;;;;;;;23.81;77.41;98207.53;15269651;19;20291;-61
2022/07/14 17:09:33;;;;;;;6.20;1.23;;;;;;;23.66;63.04;98230.97;15273937;19;20035;-60
2022/07/14 17:14:38;;;;;;;2.58;1.08;;;;;;;23.61;60.22;98211.63;15276984;19;20006;-66
2022/07/14 17:19:44;;;;;;;3.53;1.10;;;;;;;23.56;55.58;98208.81;15272970;19;20014;-61
2022/07/14 17:24:52;;;;;;;2.00;1.00;;;;;;;23.44;55.74;98219.06;15275368;19;20014;-61
2022/07/14 17:29:57;;;;;;;2.25;1.00;;;;;;;23.35;57.28;98224.97;15275530;19;20010;-63
2022/07/14 17:35:03;;;;;;;3.85;1.05;;;;;;;23.19;56.93;98234.03;15265475;19;20018;-65
2022/07/14 17:40:12;;;;;;;3.40;1.00;;;;;;;23.05;56.19;98241.75;15276673;19;20014;-64
2022/07/14 17:45:26;;;;;;;2.90;1.10;;;;;;;23.14;51.37;98266.91;15279349;19;20015;-64
2022/07/14 17:50:32;;;;;;;7.28;1.00;;;;;;;22.99;48.88;98282.00;15275252;19;20022;-66
2022/07/14 17:55:40;;;;;;;2.50;0.80;;;;;;;22.73;48.03;98291.69;15275973;19;20039;-62
2022/07/14 18:00:46;;;;;;;3.30;0.85;;;;;;;22.27;48.83;98305.25;15273253;19;20018;-64
2022/07/14 18:05:51;;;;;;;4.70;0.95;;;;;;;22.25;49.19;98313.72;15250888;19;20009;-65
2022/07/14 18:10:59;;;;;;;2.17;0.60;;;;;;;22.13;50.27;98312.88;15261069;19;20009;-67
2022/07/14 18:16:04;;;;;;;4.70;1.00;;;;;;;22.07;51.46;98328.41;15270831;19;20022;-65
2022/07/14 18:21:12;;;;;;;4.32;0.85;;;;;;;21.63;53.22;98334.22;15274536;19;20017;-66
2022/07/14 18:26:19;;;;;;;3.05;0.73;;;;;;;21.31;54.59;98342.66;15287858;19;20388;-65
2022/07/14 18:31:24;;;;;;;4.25;0.95;;;;;;;21.14;55.21;98339.75;15286569;19;20031;-64
2022/07/14 18:36:30;;;;;;;5.00;0.85;;;;;;;20.93;56.28;98341.09;15284219;19;20018;-63
2022/07/14 18:41:37;;;;;;;7.50;0.90;;;;;;;20.61;57.05;98360.41;15271503;19;20018;-61
2022/07/14 18:46:42;;;;;;;3.85;0.90;;;;;;;20.43;57.99;98364.81;15284755;19;20049;-61
2022/07/14 18:51:47;;;;;;;5.78;0.90;;;;;;;20.27;59.21;98370.88;15281045;19;20018;-67
2022/07/14 18:57:15;;;;;;;4.80;1.00;;;;;;;20.02;60.48;98375.31;15282118;19;20018;-64
2022/07/14 19:02:21;;;;;;;5.00;0.82;;;;;;;19.77;61.91;98396.31;15281432;19;20054;-63
2022/07/14 19:07:26;;;;;;;5.00;0.95;;;;;;;19.57;62.86;98400.03;15281223;19;20011;-66
2022/07/14 19:12:34;;;;;;;5.45;1.00;;;;;;;19.40;64.53;98419.66;15268219;19;20042;-64
2022/07/14 19:17:40;;;;;;;4.45;0.73;;;;;;;19.26;65.35;98426.25;15280119;19;20510;-65
2022/07/14 19:22:45;;;;;;;3.22;0.80;;;;;;;19.01;67.01;98426.16;15275762;19;20011;-66
2022/07/14 19:27:52;;;;;;;4.15;0.93;;;;;;;18.83;69.16;98435.81;15282416;19;20010;-67
2022/07/14 19:32:59;;;;;;;3.10;0.82;;;;;;;18.72;69.89;98452.88;15277690;19;20014;-67
2022/07/14 19:38:04;;;;;;;2.80;0.75;;;;;;;18.57;71.74;98453.09;15279933;19;20389;-69
2022/07/14 19:43:12;;;;;;;3.17;0.80;;;;;;;18.44;73.08;98457.53;15278946;19;20019;-70
2022/07/14 19:48:19;;;;;;;1.98;0.75;;;;;;;18.34;74.14;98468.03;15274508;19;20025;-67
2022/07/14 19:53:24;;;;;;;5.20;0.80;;;;;;;18.21;75.80;98481.66;15281619;19;20010;-66
2022/07/14 19:58:33;;;;;;;3.45;0.80;;;;;;;18.09;76.84;98487.75;15275516;19;20677;-66
2022/07/14 20:03:38;;;;;;;5.38;1.00;;;;;;;18.04;77.80;98479.38;15280543;19;20014;-68
2022/07/14 20:08:43;;;;;;;3.33;0.90;;;;;;;17.92;77.54;98494.63;15276255;19;20061;-69
2022/07/14 20:13:52;;;;;;;2.28;0.80;;;;;;;17.87;77.98;98490.63;15224948;19;20494;-67
2022/07/14 20:18:58;;;;;;;3.80;0.80;;;;;;;17.75;77.70;98505.91;15266855;19;20010;-66
2022/07/14 20:24:23;;;;;;;4.90;0.90;;;;;;;17.76;77.42;98504.84;15278197;19;20027;-64
2022/07/14 20:34:48;;;;;;;4.10;1.10;;;;;;;17.61;74.63;98509.63;15255760;19;20030;-65
2022/07/14 20:39:58;;;;;;;2.83;0.93;;;;;;;17.54;75.28;98513.19;15274344;19;20495;-64
2022/07/14 20:45:07;;;;;;;2.20;0.80;;;;;;;17.48;75.29;98522.16;15273259;19;20015;-65
2022/07/14 20:50:13;;;;;;;2.80;0.80;;;;;;;17.37;77.21;98518.16;15262988;19;20486;-64
2022/07/14 20:55:18;;;;;;;3.97;0.90;;;;;;;17.30;77.19;98521.88;15276393;19;20010;-65
2022/07/14 21:00:26;;;;;;;2.53;0.70;;;;;;;17.16;78.18;98543.59;15277262;19;20015;-65
2022/07/14 21:05:31;;;;;;;1.75;0.80;;;;;;;16.95;82.19;98552.66;15275739;19;20058;-66
2022/07/14 21:10:36;;;;;;;3.13;0.80;;;;;;;16.67;91.37;98556.22;15275236;19;20014;-65
2022/07/14 21:15:44;;;;;;;3.92;0.75;;;;;;;16.40;99.92;98575.03;15275926;19;20042;-65
2022/07/14 21:20:49;;;;;;;4.55;0.85;;;;;;;16.18;100.00;98575.03;15263616;19;20469;-65
2022/07/14 21:25:57;;;;;;;3.83;0.70;;;;;;;16.02;100.00;98576.13;15273151;19;20002;-65
2022/07/14 21:31:06;;;;;;;5.93;0.68;;;;;;;15.90;100.00;98574.97;15275080;19;20397;-65
2022/07/14 21:36:13;;;;;;;2.97;0.70;;;;;;;15.69;100.00;98578.44;15273563;19;20475;-61
2022/07/14 21:41:18;;;;;;;1.67;0.40;;;;;;;15.57;100.00;98591.69;15274252;19;20018;-67
2022/07/14 21:46:26;;;;;;;3.22;0.63;;;;;;;15.45;100.00;98580.44;15275687;19;20272;-67
2022/07/14 21:51:32;;;;;;;2.17;0.50;;;;;;;15.36;100.00;98590.56;15274339;19;20042;-66
2022/07/14 21:56:37;;;;;;;1.85;0.50;;;;;;;15.22;100.00;98583.28;15271382;19;20018;-66
2022/07/14 22:01:45;;;;;;;3.42;0.75;;;;;;;15.13;100.00;98590.66;15288279;19;20535;-65
2022/07/14 22:06:50;;;;;;;0.95;0.47;;;;;;;15.09;100.00;98603.78;15289346;19;20010;-63
2022/07/14 22:11:56;;;;;;;3.90;0.50;;;;;;;15.02;100.00;98605.53;15284166;19;20036;-63
2022/07/14 22:17:03;;;;;;;3.53;0.77;;;;;;;15.01;100.00;98611.97;15288948;19;20018;-63
2022/07/14 22:22:09;;;;;;;0.90;0.40;;;;;;;14.96;100.00;98619.84;15285095;19;20010;-64
2022/07/14 22:27:16;;;;;;;2.47;0.70;;;;;;;14.90;100.00;98628.69;15277115;19;20499;-63
2022/07/14 22:32:24;;;;;;;1.90;0.50;;;;;;;14.85;100.00;98628.44;15284205;19;20006;-64
2022/07/14 22:37:29;;;;;;;4.28;0.50;;;;;;;14.74;100.00;98622.44;15287455;19;20015;-64
2022/07/14 22:42:40;;;;;;;1.50;0.57;;;;;;;14.77;100.00;98623.91;15283614;19;20015;-63
2022/07/14 22:47:50;;;;;;;2.20;0.52;;;;;;;14.73;100.00;98618.03;15285543;19;20018;-64
2022/07/14 22:52:55;;;;;;;2.03;0.50;;;;;;;14.67;100.00;98626.88;15283204;19;20018;-64
2022/07/14 22:58:01;;;;;;;1.80;0.47;;;;;;;14.61;100.00;98633.00;15274724;19;20011;-64
2022/07/14 23:03:09;;;;;;;2.78;0.50;;;;;;;14.56;100.00;98638.13;15288162;19;20018;-63
2022/07/14 23:08:15;;;;;;;2.15;0.57;;;;;;;14.48;100.00;98634.47;15281934;19;20035;-64
2022/07/14 23:13:20;;;;;;;2.28;0.63;;;;;;;14.42;100.00;98639.75;15287710;19;20373;-64
2022/07/14 23:18:27;;;;;;;3.90;0.50;;;;;;;14.30;100.00;98639.31;15282130;19;20042;-64
2022/07/14 23:23:32;;;;;;;6.50;0.60;;;;;;;14.22;100.00;98637.53;15285815;19;20010;-64
2022/07/14 23:28:38;;;;;;;2.05;0.60;;;;;;;14.07;100.00;98631.19;15279603;19;20081;-64
2022/07/14 23:33:45;;;;;;;5.22;0.80;;;;;;;13.92;100.00;98639.25;15276439;19;20474;-65
2022/07/14 23:38:51;;;;;;;2.42;0.50;;;;;;;13.90;100.00;98636.69;15283327;19;20631;-64
2022/07/14 23:43:55;;;;;;;2.28;0.50;;;;;;;13.79;100.00;98639.78;15285775;19;20032;-64
2022/07/14 23:49:03;;;;;;;1.48;0.70;;;;;;;13.75;100.00;98639.31;15282315;19;20019;-64
2022/07/14 23:54:08;;;;;;;1.50;0.60;;;;;;;13.55;100.00;98647.00;15286896;19;20038;-63
2022/07/14 23:59:15;;;;;;;3.90;0.57;;;;;;;13.41;100.00;98645.88;15282647;19;20034;-64
